sensor_id;sensor_type;location;lat;lon;timestamp;pressure;altitude;pressure_sealevel;temperature;humidity
76321;BME280;65132;52.088;5.402;2023-02-01T00:00:26;102051.78;;;5.34;79.80
76321;BME280;65132;52.088;5.402;2023-02-01T00:02:52;102060.38;;;5.40;79.70
76321;BME280;65132;52.088;5.402;2023-02-01T00:05:18;102059.56;;;5.38;80.04
76321;BME280;65132;52.088;5.402;2023-02-01T00:07:47;102051.28;;;5.43;79.26
76321;BME280;65132;52.088;5.402;2023-02-01T00:10:14;102050.06;;;5.48;79.32
76321;BME280;65132;52.088;5.402;2023-02-01T00:12:42;102044.72;;;5.48;79.39
76321;BME280;65132;52.088;5.402;2023-02-01T00:15:08;102048.09;;;5.52;79.85
76321;BME280;65132;52.088;5.402;2023-02-01T00:17:35;102056.16;;;5.52;79.54
76321;BME280;65132;52.088;5.402;2023-02-01T00:20:01;102059.00;;;5.49;80.10
76321;BME280;65132;52.088;5.402;2023-02-01T00:22:28;102052.63;;;5.51;79.95
76321;BME280;65132;52.088;5.402;2023-02-01T00:24:54;102052.00;;;5.46;80.15
76321;BME280;65132;52.088;5.402;2023-02-01T00:27:21;102048.00;;;5.53;79.82
76321;BME280;65132;52.088;5.402;2023-02-01T00:29:47;102050.13;;;5.64;79.38
76321;BME280;65132;52.088;5.402;2023-02-01T00:32:14;102040.78;;;5.71;79.50
76321;BME280;65132;52.088;5.402;2023-02-01T00:34:40;102048.31;;;5.64;80.17
76321;BME280;65132;52.088;5.402;2023-02-01T00:37:07;102041.75;;;5.70;79.96
76321;BME280;65132;52.088;5.402;2023-02-01T00:39:33;102044.66;;;5.65;80.01
76321;BME280;65132;52.088;5.402;2023-02-01T00:42:00;102037.69;;;5.78;79.38
76321;BME280;65132;52.088;5.402;2023-02-01T00:44:27;102038.47;;;5.80;79.36
76321;BME280;65132;52.088;5.402;2023-02-01T00:46:53;102045.66;;;5.80;79.79
76321;BME280;65132;52.088;5.402;2023-02-01T00:49:20;102047.28;;;5.84;79.28
76321;BME280;65132;52.088;5.402;2023-02-01T00:51:46;102042.41;;;5.90;79.39
76321;BME280;65132;52.088;5.402;2023-02-01T00:54:13;102041.28;;;5.94;79.00
76321;BME280;65132;52.088;5.402;2023-02-01T00:56:39;102042.81;;;5.83;79.31
76321;BME280;65132;52.088;5.402;2023-02-01T00:59:05;102044.84;;;5.95;78.88
76321;BME280;65132;52.088;5.402;2023-02-01T01:01:32;102042.50;;;5.89;79.36
76321;BME280;65132;52.088;5.402;2023-02-01T01:03:59;102042.00;;;5.81;79.21
76321;BME280;65132;52.088;5.402;2023-02-01T01:06:31;102042.75;;;5.84;79.58
76321;BME280;65132;52.088;5.402;2023-02-01T01:09:00;102040.44;;;5.94;79.10
76321;BME280;65132;52.088;5.402;2023-02-01T01:11:29;102038.78;;;6.07;78.40
76321;BME280;65132;52.088;5.402;2023-02-01T01:13:57;102033.72;;;6.17;77.82
76321;BME280;65132;52.088;5.402;2023-02-01T01:16:26;102032.34;;;6.09;78.11
76321;BME280;65132;52.088;5.402;2023-02-01T01:18:52;102026.88;;;6.27;76.62
76321;BME280;65132;52.088;5.402;2023-02-01T01:21:19;102020.56;;;6.28;77.23
76321;BME280;65132;52.088;5.402;2023-02-01T01:23:46;102033.41;;;6.23;76.69
76321;BME280;65132;52.088;5.402;2023-02-01T01:26:18;102022.47;;;6.26;76.44
76321;BME280;65132;52.088;5.402;2023-02-01T01:28:46;102024.56;;;6.21;76.65
76321;BME280;65132;52.088;5.402;2023-02-01T01:31:14;102020.38;;;6.15;77.10
76321;BME280;65132;52.088;5.402;2023-02-01T01:33:41;102020.66;;;6.11;76.98
76321;BME280;65132;52.088;5.402;2023-02-01T01:36:09;102021.97;;;6.03;77.12
76321;BME280;65132;52.088;5.402;2023-02-01T01:38:36;102022.13;;;6.16;76.56
76321;BME280;65132;52.088;5.402;2023-02-01T01:41:03;102027.34;;;6.19;75.82
76321;BME280;65132;52.088;5.402;2023-02-01T01:43:51;102026.22;;;6.23;75.82
76321;BME280;65132;52.088;5.402;2023-02-01T01:46:21;102029.66;;;6.25;76.54
76321;BME280;65132;52.088;5.402;2023-02-01T01:48:53;102015.00;;;6.31;76.07
76321;BME280;65132;52.088;5.402;2023-02-01T01:51:24;102025.94;;;6.28;76.03
76321;BME280;65132;52.088;5.402;2023-02-01T01:54:07;102016.06;;;6.28;76.24
76321;BME280;65132;52.088;5.402;2023-02-01T01:56:35;102015.00;;;6.31;75.82
76321;BME280;65132;52.088;5.402;2023-02-01T01:59:02;102006.59;;;6.37;75.41
76321;BME280;65132;52.088;5.402;2023-02-01T02:01:29;102005.97;;;6.32;76.17
76321;BME280;65132;52.088;5.402;2023-02-01T02:03:56;101997.56;;;6.38;76.05
76321;BME280;65132;52.088;5.402;2023-02-01T02:08:59;101994.50;;;6.44;75.70
76321;BME280;65132;52.088;5.402;2023-02-01T02:11:25;102005.94;;;6.47;75.80
76321;BME280;65132;52.088;5.402;2023-02-01T02:13:53;101990.50;;;6.51;76.37
76321;BME280;65132;52.088;5.402;2023-02-01T02:25:13;101986.06;;;6.65;75.49
76321;BME280;65132;52.088;5.402;2023-02-01T02:33:40;101979.53;;;6.69;76.56
76321;BME280;65132;52.088;5.402;2023-02-01T02:36:31;101982.31;;;6.68;76.38
76321;BME280;65132;52.088;5.402;2023-02-01T02:42:06;101973.69;;;6.77;77.13
76321;BME280;65132;52.088;5.402;2023-02-01T02:44:39;101960.81;;;6.82;76.43
76321;BME280;65132;52.088;5.402;2023-02-01T02:47:23;101959.69;;;6.86;76.27
76321;BME280;65132;52.088;5.402;2023-02-01T02:49:55;101953.91;;;6.78;76.82
76321;BME280;65132;52.088;5.402;2023-02-01T02:52:23;101966.69;;;6.88;76.14
76321;BME280;65132;52.088;5.402;2023-02-01T02:54:50;101958.03;;;6.83;77.19
76321;BME280;65132;52.088;5.402;2023-02-01T02:57:23;101958.13;;;6.82;77.38
76321;BME280;65132;52.088;5.402;2023-02-01T02:59:50;101963.63;;;6.80;77.02
76321;BME280;65132;52.088;5.402;2023-02-01T03:02:19;101948.53;;;6.92;75.86
76321;BME280;65132;52.088;5.402;2023-02-01T03:04:46;101932.09;;;6.96;76.08
76321;BME280;65132;52.088;5.402;2023-02-01T03:10:33;101916.38;;;7.04;76.01
76321;BME280;65132;52.088;5.402;2023-02-01T03:13:04;101921.63;;;6.92;76.29
76321;BME280;65132;52.088;5.402;2023-02-01T03:15:37;101929.72;;;6.92;75.48
76321;BME280;65132;52.088;5.402;2023-02-01T03:18:26;101918.94;;;6.92;75.48
76321;BME280;65132;52.088;5.402;2023-02-01T03:20:55;101929.81;;;6.90;76.22
76321;BME280;65132;52.088;5.402;2023-02-01T03:23:26;101923.94;;;6.84;76.13
76321;BME280;65132;52.088;5.402;2023-02-01T03:25:56;101928.06;;;6.75;76.43
76321;BME280;65132;52.088;5.402;2023-02-01T03:28:25;101925.06;;;6.80;76.13
76321;BME280;65132;52.088;5.402;2023-02-01T03:30:54;101937.41;;;6.84;76.13
76321;BME280;65132;52.088;5.402;2023-02-01T03:33:23;101923.03;;;6.69;75.93
76321;BME280;65132;52.088;5.402;2023-02-01T03:38:38;101920.09;;;6.74;75.55
76321;BME280;65132;52.088;5.402;2023-02-01T03:44:06;101927.09;;;6.76;75.21
76321;BME280;65132;52.088;5.402;2023-02-01T03:46:44;101940.81;;;6.72;75.89
76321;BME280;65132;52.088;5.402;2023-02-01T03:49:18;101934.28;;;6.62;76.20
76321;BME280;65132;52.088;5.402;2023-02-01T03:51:47;101931.00;;;6.57;76.89
76321;BME280;65132;52.088;5.402;2023-02-01T03:54:17;101948.75;;;6.59;76.62
76321;BME280;65132;52.088;5.402;2023-02-01T03:56:46;101950.22;;;6.65;76.41
76321;BME280;65132;52.088;5.402;2023-02-01T03:59:14;101960.97;;;6.65;76.46
76321;BME280;65132;52.088;5.402;2023-02-01T04:01:40;101953.59;;;6.68;76.88
76321;BME280;65132;52.088;5.402;2023-02-01T04:04:07;101942.94;;;6.67;76.36
76321;BME280;65132;52.088;5.402;2023-02-01T04:06:33;101938.63;;;6.78;76.01
76321;BME280;65132;52.088;5.402;2023-02-01T04:09:00;101945.56;;;6.82;75.89
76321;BME280;65132;52.088;5.402;2023-02-01T04:11:26;101927.41;;;6.86;75.99
76321;BME280;65132;52.088;5.402;2023-02-01T04:13:53;101936.31;;;6.86;76.08
76321;BME280;65132;52.088;5.402;2023-02-01T04:16:19;101935.97;;;6.92;75.35
76321;BME280;65132;52.088;5.402;2023-02-01T04:18:46;101928.66;;;6.94;75.63
76321;BME280;65132;52.088;5.402;2023-02-01T04:21:12;101926.16;;;6.91;75.21
76321;BME280;65132;52.088;5.402;2023-02-01T04:23:39;101932.88;;;6.98;74.61
76321;BME280;65132;52.088;5.402;2023-02-01T04:26:05;101935.75;;;6.95;75.30
76321;BME280;65132;52.088;5.402;2023-02-01T04:28:31;101945.09;;;7.04;74.80
76321;BME280;65132;52.088;5.402;2023-02-01T04:30:58;101954.31;;;7.00;74.73
76321;BME280;65132;52.088;5.402;2023-02-01T04:33:24;101951.47;;;7.03;74.60
76321;BME280;65132;52.088;5.402;2023-02-01T04:35:51;101945.00;;;7.05;73.72
76321;BME280;65132;52.088;5.402;2023-02-01T04:38:17;101938.47;;;7.09;74.73
76321;BME280;65132;52.088;5.402;2023-02-01T04:40:47;101938.38;;;7.11;74.55
76321;BME280;65132;52.088;5.402;2023-02-01T04:43:13;101930.09;;;7.00;75.30
76321;BME280;65132;52.088;5.402;2023-02-01T04:45:40;101925.97;;;6.94;75.74
76321;BME280;65132;52.088;5.402;2023-02-01T04:48:06;101932.78;;;7.00;75.23
76321;BME280;65132;52.088;5.402;2023-02-01T04:50:32;101926.38;;;7.02;74.58
76321;BME280;65132;52.088;5.402;2023-02-01T04:52:59;101936.66;;;6.96;75.00
76321;BME280;65132;52.088;5.402;2023-02-01T04:55:25;101928.09;;;6.89;75.95
76321;BME280;65132;52.088;5.402;2023-02-01T04:57:52;101926.81;;;6.81;75.67
76321;BME280;65132;52.088;5.402;2023-02-01T05:00:18;101921.72;;;6.76;76.28
76321;BME280;65132;52.088;5.402;2023-02-01T05:02:44;101928.06;;;6.75;76.25
76321;BME280;65132;52.088;5.402;2023-02-01T05:05:11;101927.38;;;6.72;76.54
76321;BME280;65132;52.088;5.402;2023-02-01T05:07:37;101915.34;;;6.63;76.97
76321;BME280;65132;52.088;5.402;2023-02-01T05:10:04;101928.31;;;6.71;77.03
76321;BME280;65132;52.088;5.402;2023-02-01T05:12:30;101921.91;;;6.73;76.43
76321;BME280;65132;52.088;5.402;2023-02-01T05:14:57;101917.31;;;6.75;76.12
76321;BME280;65132;52.088;5.402;2023-02-01T05:17:23;101909.69;;;6.68;77.16
76321;BME280;65132;52.088;5.402;2023-02-01T05:19:49;101894.72;;;6.64;76.51
76321;BME280;65132;52.088;5.402;2023-02-01T05:22:16;101920.34;;;6.69;76.37
76321;BME280;65132;52.088;5.402;2023-02-01T05:24:42;101913.53;;;6.64;77.45
76321;BME280;65132;52.088;5.402;2023-02-01T05:27:08;101910.16;;;6.60;76.65
76321;BME280;65132;52.088;5.402;2023-02-01T05:29:35;101914.13;;;6.69;76.55
76321;BME280;65132;52.088;5.402;2023-02-01T05:32:01;101927.09;;;6.76;76.11
76321;BME280;65132;52.088;5.402;2023-02-01T05:34:46;101948.59;;;6.76;76.79
76321;BME280;65132;52.088;5.402;2023-02-01T05:37:13;101935.25;;;6.75;76.58
76321;BME280;65132;52.088;5.402;2023-02-01T05:39:39;101921.59;;;6.78;76.22
76321;BME280;65132;52.088;5.402;2023-02-01T05:42:05;101932.88;;;6.84;76.34
76321;BME280;65132;52.088;5.402;2023-02-01T05:44:33;101942.19;;;6.79;76.96
76321;BME280;65132;52.088;5.402;2023-02-01T05:46:59;101931.63;;;6.76;76.50
76321;BME280;65132;52.088;5.402;2023-02-01T05:49:26;101932.38;;;6.78;76.43
76321;BME280;65132;52.088;5.402;2023-02-01T05:51:52;101937.66;;;6.79;76.55
76321;BME280;65132;52.088;5.402;2023-02-01T05:54:19;101932.28;;;6.79;76.46
76321;BME280;65132;52.088;5.402;2023-02-01T05:56:45;101934.41;;;6.88;75.81
76321;BME280;65132;52.088;5.402;2023-02-01T05:59:11;101922.38;;;6.80;77.17
76321;BME280;65132;52.088;5.402;2023-02-01T06:01:38;101928.94;;;6.90;76.21
76321;BME280;65132;52.088;5.402;2023-02-01T06:04:05;101932.78;;;6.86;76.33
76321;BME280;65132;52.088;5.402;2023-02-01T06:06:32;101932.94;;;6.83;77.09
76321;BME280;65132;52.088;5.402;2023-02-01T06:08:58;101935.09;;;6.92;76.98
76321;BME280;65132;52.088;5.402;2023-02-01T06:11:27;101938.84;;;6.89;76.77
76321;BME280;65132;52.088;5.402;2023-02-01T06:13:58;101938.84;;;6.89;76.85
76321;BME280;65132;52.088;5.402;2023-02-01T06:16:25;101932.09;;;6.82;77.13
76321;BME280;65132;52.088;5.402;2023-02-01T06:18:52;101940.66;;;6.89;76.64
76321;BME280;65132;52.088;5.402;2023-02-01T06:21:19;101936.22;;;6.88;76.88
76321;BME280;65132;52.088;5.402;2023-02-01T06:23:46;101950.25;;;6.79;78.26
76321;BME280;65132;52.088;5.402;2023-02-01T06:26:12;101940.19;;;6.82;77.50
76321;BME280;65132;52.088;5.402;2023-02-01T06:28:39;101941.13;;;6.81;77.61
76321;BME280;65132;52.088;5.402;2023-02-01T06:31:06;101929.41;;;6.82;77.70
76321;BME280;65132;52.088;5.402;2023-02-01T06:33:34;101936.72;;;6.80;77.77
76321;BME280;65132;52.088;5.402;2023-02-01T06:36:03;101953.88;;;6.64;78.15
76321;BME280;65132;52.088;5.402;2023-02-01T06:38:35;101951.88;;;6.67;78.19
76321;BME280;65132;52.088;5.402;2023-02-01T06:41:02;101943.19;;;6.62;78.33
76321;BME280;65132;52.088;5.402;2023-02-01T06:43:28;101950.03;;;6.54;78.80
76321;BME280;65132;52.088;5.402;2023-02-01T06:46:02;101962.88;;;6.63;78.05
76321;BME280;65132;52.088;5.402;2023-02-01T06:48:30;101961.53;;;6.56;77.89
76321;BME280;65132;52.088;5.402;2023-02-01T06:50:56;101958.47;;;6.62;78.47
76321;BME280;65132;52.088;5.402;2023-02-01T06:53:23;101965.19;;;6.55;78.21
76321;BME280;65132;52.088;5.402;2023-02-01T06:55:52;101966.22;;;6.52;79.01
76321;BME280;65132;52.088;5.402;2023-02-01T06:58:19;101959.72;;;6.56;78.47
76321;BME280;65132;52.088;5.402;2023-02-01T07:00:45;101977.84;;;6.53;78.95
76321;BME280;65132;52.088;5.402;2023-02-01T07:03:11;101957.69;;;6.60;78.74
76321;BME280;65132;52.088;5.402;2023-02-01T07:05:38;101957.00;;;6.56;78.95
76321;BME280;65132;52.088;5.402;2023-02-01T07:08:04;101959.25;;;6.64;78.89
76321;BME280;65132;52.088;5.402;2023-02-01T07:10:31;101967.59;;;6.59;78.61
76321;BME280;65132;52.088;5.402;2023-02-01T07:12:57;101959.50;;;6.59;78.88
76321;BME280;65132;52.088;5.402;2023-02-01T07:15:27;101977.31;;;6.62;79.29
76321;BME280;65132;52.088;5.402;2023-02-01T07:17:56;101965.66;;;6.61;79.49
76321;BME280;65132;52.088;5.402;2023-02-01T07:20:23;101964.78;;;6.61;79.21
76321;BME280;65132;52.088;5.402;2023-02-01T07:22:55;101960.69;;;6.69;78.60
76321;BME280;65132;52.088;5.402;2023-02-01T07:25:23;101958.78;;;6.71;79.06
76321;BME280;65132;52.088;5.402;2023-02-01T07:27:50;101957.75;;;6.74;77.91
76321;BME280;65132;52.088;5.402;2023-02-01T07:30:17;101948.69;;;6.75;78.10
76321;BME280;65132;52.088;5.402;2023-02-01T07:32:43;101951.00;;;6.67;79.34
76321;BME280;65132;52.088;5.402;2023-02-01T07:35:11;101949.44;;;6.63;78.65
76321;BME280;65132;52.088;5.402;2023-02-01T07:37:38;101958.78;;;6.71;77.90
76321;BME280;65132;52.088;5.402;2023-02-01T07:40:05;101950.03;;;6.68;78.08
76321;BME280;65132;52.088;5.402;2023-02-01T07:42:31;101965.72;;;6.75;77.59
76321;BME280;65132;52.088;5.402;2023-02-01T07:44:58;101944.09;;;6.77;77.45
76321;BME280;65132;52.088;5.402;2023-02-01T07:47:40;101961.88;;;6.79;78.00
76321;BME280;65132;52.088;5.402;2023-02-01T07:50:09;101964.44;;;6.67;78.40
76321;BME280;65132;52.088;5.402;2023-02-01T07:52:37;101965.13;;;6.70;78.11
76321;BME280;65132;52.088;5.402;2023-02-01T07:55:05;101958.88;;;6.70;78.44
76321;BME280;65132;52.088;5.402;2023-02-01T07:57:32;101952.06;;;6.78;77.44
76321;BME280;65132;52.088;5.402;2023-02-01T07:59:59;101963.31;;;6.85;76.63
76321;BME280;65132;52.088;5.402;2023-02-01T08:02:25;101969.78;;;6.82;77.15
76321;BME280;65132;52.088;5.402;2023-02-01T08:04:52;101964.78;;;6.90;76.84
76321;BME280;65132;52.088;5.402;2023-02-01T08:07:20;101970.25;;;6.89;77.66
76321;BME280;65132;52.088;5.402;2023-02-01T08:09:47;101984.31;;;6.94;77.68
76321;BME280;65132;52.088;5.402;2023-02-01T08:12:14;101987.97;;;6.93;77.60
76321;BME280;65132;52.088;5.402;2023-02-01T08:14:40;101981.03;;;6.89;77.41
76321;BME280;65132;52.088;5.402;2023-02-01T08:17:07;101989.88;;;6.91;77.46
76321;BME280;65132;52.088;5.402;2023-02-01T08:19:33;101977.94;;;6.95;77.96
76321;BME280;65132;52.088;5.402;2023-02-01T08:22:00;101974.31;;;6.96;77.19
76321;BME280;65132;52.088;5.402;2023-02-01T08:24:28;101964.97;;;7.01;77.02
76321;BME280;65132;52.088;5.402;2023-02-01T08:26:54;101969.50;;;7.01;77.01
76321;BME280;65132;52.088;5.402;2023-02-01T08:29:21;101961.81;;;7.09;77.19
76321;BME280;65132;52.088;5.402;2023-02-01T08:31:47;101956.06;;;7.29;76.35
76321;BME280;65132;52.088;5.402;2023-02-01T08:34:14;101959.13;;;7.51;75.79
76321;BME280;65132;52.088;5.402;2023-02-01T08:36:40;101955.94;;;7.73;74.45
76321;BME280;65132;52.088;5.402;2023-02-01T08:39:09;101957.41;;;8.05;73.38
76321;BME280;65132;52.088;5.402;2023-02-01T08:41:36;101951.41;;;8.40;71.51
76321;BME280;65132;52.088;5.402;2023-02-01T08:44:02;101955.50;;;8.73;70.65
76321;BME280;65132;52.088;5.402;2023-02-01T08:46:29;101947.78;;;8.54;70.84
76321;BME280;65132;52.088;5.402;2023-02-01T08:48:55;101951.25;;;8.56;71.49
76321;BME280;65132;52.088;5.402;2023-02-01T08:51:22;101954.56;;;8.47;71.25
76321;BME280;65132;52.088;5.402;2023-02-01T08:53:49;101953.56;;;8.75;70.10
76321;BME280;65132;52.088;5.402;2023-02-01T08:56:16;101952.19;;;9.07;69.14
76321;BME280;65132;52.088;5.402;2023-02-01T08:58:43;101961.22;;;9.06;69.33
76321;BME280;65132;52.088;5.402;2023-02-01T09:01:13;101951.59;;;8.64;70.92
76321;BME280;65132;52.088;5.402;2023-02-01T09:03:40;101958.84;;;8.37;71.49
76321;BME280;65132;52.088;5.402;2023-02-01T09:06:09;101955.88;;;8.67;71.42
76321;BME280;65132;52.088;5.402;2023-02-01T09:08:37;101949.38;;;9.08;69.60
76321;BME280;65132;52.088;5.402;2023-02-01T09:11:10;101953.00;;;9.57;68.33
76321;BME280;65132;52.088;5.402;2023-02-01T09:13:37;101940.06;;;9.00;69.36
76321;BME280;65132;52.088;5.402;2023-02-01T09:16:04;101946.47;;;8.99;70.13
76321;BME280;65132;52.088;5.402;2023-02-01T09:18:30;101935.38;;;9.52;68.09
76321;BME280;65132;52.088;5.402;2023-02-01T09:20:57;101927.00;;;9.80;67.35
76321;BME280;65132;52.088;5.402;2023-02-01T09:23:23;101924.38;;;9.30;68.62
76321;BME280;65132;52.088;5.402;2023-02-01T09:25:50;101916.28;;;9.42;68.14
76321;BME280;65132;52.088;5.402;2023-02-01T09:28:17;101922.38;;;9.69;67.30
76321;BME280;65132;52.088;5.402;2023-02-01T09:30:44;101928.41;;;9.86;66.62
76321;BME280;65132;52.088;5.402;2023-02-01T09:33:11;101938.66;;;9.32;67.98
76321;BME280;65132;52.088;5.402;2023-02-01T09:35:40;101944.28;;;9.16;68.29
76321;BME280;65132;52.088;5.402;2023-02-01T09:38:06;101942.53;;;8.78;70.23
76321;BME280;65132;52.088;5.402;2023-02-01T09:40:34;101951.16;;;8.58;71.72
76321;BME280;65132;52.088;5.402;2023-02-01T09:43:20;101946.38;;;8.48;72.06
76321;BME280;65132;52.088;5.402;2023-02-01T09:48:31;101951.47;;;8.12;72.34
76321;BME280;65132;52.088;5.402;2023-02-01T09:50:59;101946.63;;;8.05;73.09
76321;BME280;65132;52.088;5.402;2023-02-01T09:53:38;101950.09;;;8.07;73.93
76321;BME280;65132;52.088;5.402;2023-02-01T09:56:13;101954.44;;;7.95;73.85
76321;BME280;65132;52.088;5.402;2023-02-01T09:58:44;101943.19;;;7.89;74.48
76321;BME280;65132;52.088;5.402;2023-02-01T10:01:19;101941.25;;;7.91;74.87
76321;BME280;65132;52.088;5.402;2023-02-01T10:03:47;101949.66;;;7.86;74.67
76321;BME280;65132;52.088;5.402;2023-02-01T10:22:47;101934.09;;;7.63;77.13
76321;BME280;65132;52.088;5.402;2023-02-01T10:25:53;101932.59;;;7.59;78.91
76321;BME280;65132;52.088;5.402;2023-02-01T10:28:20;101943.28;;;7.47;79.05
76321;BME280;65132;52.088;5.402;2023-02-01T10:30:48;101968.38;;;7.33;79.93
76321;BME280;65132;52.088;5.402;2023-02-01T10:33:31;101950.00;;;7.25;81.66
76321;BME280;65132;52.088;5.402;2023-02-01T10:38:43;101947.03;;;7.16;81.68
76321;BME280;65132;52.088;5.402;2023-02-01T10:41:17;101943.25;;;7.18;82.95
76321;BME280;65132;52.088;5.402;2023-02-01T10:43:45;101936.75;;;7.22;82.53
76321;BME280;65132;52.088;5.402;2023-02-01T10:46:14;101927.41;;;7.28;80.64
76321;BME280;65132;52.088;5.402;2023-02-01T10:48:41;101929.91;;;7.31;79.90
76321;BME280;65132;52.088;5.402;2023-02-01T10:51:15;101931.47;;;7.35;78.81
76321;BME280;65132;52.088;5.402;2023-02-01T10:56:21;101940.59;;;7.47;78.22
76321;BME280;65132;52.088;5.402;2023-02-01T10:58:48;101919.50;;;7.53;77.64
76321;BME280;65132;52.088;5.402;2023-02-01T11:01:39;101901.97;;;7.60;76.74
76321;BME280;65132;52.088;5.402;2023-02-01T11:04:10;101914.41;;;7.63;78.11
76321;BME280;65132;52.088;5.402;2023-02-01T11:06:46;101916.88;;;7.66;77.12
76321;BME280;65132;52.088;5.402;2023-02-01T11:14:18;101904.13;;;7.82;76.41
76321;BME280;65132;52.088;5.402;2023-02-01T11:16:54;101904.91;;;7.84;76.12
76321;BME280;65132;52.088;5.402;2023-02-01T11:19:21;101896.38;;;7.77;77.20
76321;BME280;65132;52.088;5.402;2023-02-01T11:21:52;101897.91;;;7.81;77.74
76321;BME280;65132;52.088;5.402;2023-02-01T11:24:32;101909.63;;;7.80;78.26
76321;BME280;65132;52.088;5.402;2023-02-01T11:27:02;101891.44;;;7.84;76.29
76321;BME280;65132;52.088;5.402;2023-02-01T11:29:38;101907.50;;;7.85;77.19
76321;BME280;65132;52.088;5.402;2023-02-01T11:32:08;101897.38;;;7.89;77.64
76321;BME280;65132;52.088;5.402;2023-02-01T11:34:41;101906.44;;;7.88;77.33
76321;BME280;65132;52.088;5.402;2023-02-01T11:37:22;101906.44;;;7.88;76.67
76321;BME280;65132;52.088;5.402;2023-02-01T11:39:57;101912.84;;;7.99;76.91
76321;BME280;65132;52.088;5.402;2023-02-01T11:42:25;101910.25;;;7.98;76.16
76321;BME280;65132;52.088;5.402;2023-02-01T11:45:18;101901.34;;;8.10;76.65
76321;BME280;65132;52.088;5.402;2023-02-01T11:47:45;101905.66;;;8.12;75.61
76321;BME280;65132;52.088;5.402;2023-02-01T11:50:38;101911.91;;;8.13;76.38
76321;BME280;65132;52.088;5.402;2023-02-01T11:53:25;101903.16;;;8.23;75.69
76321;BME280;65132;52.088;5.402;2023-02-01T11:56:04;101891.75;;;8.32;74.44
76321;BME280;65132;52.088;5.402;2023-02-01T12:04:41;101866.22;;;8.88;73.07
76321;BME280;65132;52.088;5.402;2023-02-01T12:10:20;101865.34;;;8.63;73.74
76321;BME280;65132;52.088;5.402;2023-02-01T12:18:50;101883.91;;;8.92;72.61
76321;BME280;65132;52.088;5.402;2023-02-01T12:29:47;101896.78;;;8.76;73.17
76321;BME280;65132;52.088;5.402;2023-02-01T12:43:46;101878.72;;;8.52;73.53
76321;BME280;65132;52.088;5.402;2023-02-01T12:46:20;101874.72;;;8.57;72.63
76321;BME280;65132;52.088;5.402;2023-02-01T12:49:05;101865.97;;;8.54;73.32
76321;BME280;65132;52.088;5.402;2023-02-01T12:51:36;101870.06;;;8.46;73.54
76321;BME280;65132;52.088;5.402;2023-02-01T12:56:51;101866.09;;;8.52;73.79
76321;BME280;65132;52.088;5.402;2023-02-01T12:59:24;101873.44;;;8.63;73.45
76321;BME280;65132;52.088;5.402;2023-02-01T13:02:12;101853.56;;;8.64;72.12
76321;BME280;65132;52.088;5.402;2023-02-01T13:04:56;101864.91;;;8.69;72.55
76321;BME280;65132;52.088;5.402;2023-02-01T13:07:30;101864.16;;;8.67;73.71
76321;BME280;65132;52.088;5.402;2023-02-01T13:10:11;101867.94;;;8.64;73.96
76321;BME280;65132;52.088;5.402;2023-02-01T13:13:14;101887.88;;;8.62;72.57
76321;BME280;65132;52.088;5.402;2023-02-01T13:15:58;101878.72;;;8.52;72.84
76321;BME280;65132;52.088;5.402;2023-02-01T13:18:35;101875.38;;;8.61;72.58
76321;BME280;65132;52.088;5.402;2023-02-01T13:21:24;101864.03;;;8.56;73.15
76321;BME280;65132;52.088;5.402;2023-02-01T13:23:53;101865.75;;;8.57;73.90
76321;BME280;65132;52.088;5.402;2023-02-01T13:26:19;101869.56;;;8.54;73.34
76321;BME280;65132;52.088;5.402;2023-02-01T13:29:12;101866.00;;;8.66;73.24
76321;BME280;65132;52.088;5.402;2023-02-01T13:32:10;101898.50;;;8.65;73.26
76321;BME280;65132;52.088;5.402;2023-02-01T13:40:17;101874.50;;;8.60;73.58
76321;BME280;65132;52.088;5.402;2023-02-01T13:42:52;101873.75;;;8.58;73.69
76321;BME280;65132;52.088;5.402;2023-02-01T13:45:27;101872.78;;;8.59;73.43
76321;BME280;65132;52.088;5.402;2023-02-01T13:47:56;101872.03;;;8.57;74.49
76321;BME280;65132;52.088;5.402;2023-02-01T13:50:35;101878.31;;;8.58;74.64
76321;BME280;65132;52.088;5.402;2023-02-01T13:53:17;101894.28;;;8.61;74.32
76321;BME280;65132;52.088;5.402;2023-02-01T13:55:55;101896.34;;;8.70;73.73
76321;BME280;65132;52.088;5.402;2023-02-01T13:58:34;101887.38;;;8.69;73.55
76321;BME280;65132;52.088;5.402;2023-02-01T14:03:56;101896.44;;;8.68;74.12
76321;BME280;65132;52.088;5.402;2023-02-01T14:09:18;101891.59;;;8.73;73.87
76321;BME280;65132;52.088;5.402;2023-02-01T14:11:52;101897.28;;;8.69;74.03
76321;BME280;65132;52.088;5.402;2023-02-01T14:22:31;101894.16;;;8.62;74.72
76321;BME280;65132;52.088;5.402;2023-02-01T14:24:38;101901.31;;;8.63;74.51
76321;BME280;65132;52.088;5.402;2023-02-01T14:27:16;101894.28;;;8.61;74.65
76321;BME280;65132;52.088;5.402;2023-02-01T14:29:52;101896.19;;;8.59;75.07
76321;BME280;65132;52.088;5.402;2023-02-01T14:32:24;101890.59;;;8.62;74.90
76321;BME280;65132;52.088;5.402;2023-02-01T14:34:54;101881.88;;;8.71;75.15
76321;BME280;65132;52.088;5.402;2023-02-01T14:50:47;101890.16;;;8.55;75.95
76321;BME280;65132;52.088;5.402;2023-02-01T14:53:20;101867.06;;;8.64;75.66
76321;BME280;65132;52.088;5.402;2023-02-01T14:58:46;101883.03;;;8.54;76.50
76321;BME280;65132;52.088;5.402;2023-02-01T15:01:22;101871.16;;;8.57;75.33
76321;BME280;65132;52.088;5.402;2023-02-01T15:11:30;101891.31;;;8.38;77.74
76321;BME280;65132;52.088;5.402;2023-02-01T15:13:56;101899.75;;;8.46;77.71
76321;BME280;65132;52.088;5.402;2023-02-01T15:16:25;101892.53;;;8.47;77.96
76321;BME280;65132;52.088;5.402;2023-02-01T15:19:09;101889.38;;;8.40;78.13
76321;BME280;65132;52.088;5.402;2023-02-01T15:21:45;101912.16;;;8.49;77.38
76321;BME280;65132;52.088;5.402;2023-02-01T15:24:23;101903.41;;;8.58;76.11
76321;BME280;65132;52.088;5.402;2023-02-01T15:26:52;101896.31;;;8.57;76.37
76321;BME280;65132;52.088;5.402;2023-02-01T15:29:20;101907.75;;;8.61;76.03
76321;BME280;65132;52.088;5.402;2023-02-01T15:31:50;101904.84;;;8.64;76.45
76321;BME280;65132;52.088;5.402;2023-02-01T15:34:18;101909.47;;;8.62;76.70